Time;durP1;ratioP1;P1;durP2;ratioP2;P2;SDS_P1;SDS_P2;PMS_P1;PMS_P2;Temp;Humidity;BMP_temperature;BMP_pressure;BME280_temperature;BME280_humidity;BME280_pressure;Samples;Min_cycle;Max_cycle;Signal;HPM_P1;HPM_P2
2023/01/24 00:00:41;;;;;;;31.80;17.20;;;;;;;4.64;100.00;99422.97;5053077;28;20178;-62
2023/01/24 00:03:11;;;;;;;31.95;16.48;;;;;;;4.68;100.00;99434.81;5052697;28;20227;-62
2023/01/24 00:05:41;;;;;;;32.35;16.25;;;;;;;4.76;100.00;99432.88;5053309;28;20256;-62
2023/01/24 00:08:07;;;;;;;32.72;18.00;;;;;;;5.06;100.00;99488.38;5052687;28;20178;-61
2023/01/24 00:10:33;;;;;;;36.80;20.13;;;;;;;4.66;100.00;99441.69;5052628;28;20186;-62
2023/01/24 00:12:58;;;;;;;39.50;18.13;;;;;;;4.87;100.00;99483.81;5052633;28;20569;-62
2023/01/24 00:15:24;;;;;;;34.95;17.77;;;;;;;4.90;100.00;99487.13;5052573;28;20256;-62
2023/01/24 00:17:49;;;;;;;36.35;18.17;;;;;;;4.78;100.00;99438.78;5052465;28;20227;-62
2023/01/24 00:20:15;;;;;;;31.33;17.65;;;;;;;5.07;100.00;99494.38;5052246;28;20243;-62
2023/01/24 00:22:41;;;;;;;34.90;18.13;;;;;;;4.67;100.00;99437.41;5052452;28;20759;-62
2023/01/24 00:25:07;;;;;;;30.13;17.08;;;;;;;4.69;100.00;99439.06;5052459;28;20212;-62
2023/01/24 00:27:34;;;;;;;33.72;17.33;;;;;;;4.53;100.00;99447.22;5052920;28;20181;-62
2023/01/24 00:29:59;;;;;;;30.40;16.58;;;;;;;4.51;100.00;99439.59;5052603;28;20216;-62
2023/01/24 00:32:25;;;;;;;23.10;15.52;;;;;;;4.57;100.00;99436.84;5052654;28;20636;-62
2023/01/24 00:34:50;;;;;;;26.60;16.98;;;;;;;4.55;100.00;99430.09;5030217;28;20574;-62
2023/01/24 00:37:16;;;;;;;30.63;17.88;;;;;;;4.70;100.00;99475.78;5030145;28;20237;-62
2023/01/24 00:39:41;;;;;;;36.33;17.42;;;;;;;4.37;100.00;99398.13;5030223;28;20281;-62
2023/01/24 00:42:06;;;;;;;27.20;16.23;;;;;;;4.77;100.00;99474.72;5029999;28;20213;-62
2023/01/24 00:44:32;;;;;;;30.30;16.50;;;;;;;4.64;100.00;99448.59;5030108;28;20665;-62
2023/01/24 00:46:57;;;;;;;24.90;15.13;;;;;;;4.86;100.00;99495.81;5029974;28;20217;-62
2023/01/24 00:49:23;;;;;;;28.88;15.07;;;;;;;4.70;100.00;99462.94;5030414;28;20276;-62
2023/01/24 00:51:48;;;;;;;25.45;15.77;;;;;;;4.48;100.00;99437.09;5029921;28;20656;-62
2023/01/24 00:54:13;;;;;;;28.42;15.73;;;;;;;4.40;100.00;99433.06;5030180;28;20194;-62
2023/01/24 00:56:39;;;;;;;30.95;16.42;;;;;;;4.44;100.00;99435.50;5030191;28;20202;-62
2023/01/24 00:59:04;;;;;;;24.13;15.07;;;;;;;4.42;100.00;99437.25;5029882;28;20652;-62
2023/01/24 01:01:29;;;;;;;29.33;16.65;;;;;;;4.57;100.00;99454.78;5030028;28;20197;-62
2023/01/24 01:03:56;;;;;;;27.00;15.55;;;;;;;4.95;100.00;99513.50;5029864;28;20728;-62
2023/01/24 01:06:22;;;;;;;24.55;15.70;;;;;;;4.92;100.00;99500.78;5045855;28;20197;-62
2023/01/24 01:08:47;;;;;;;28.05;15.02;;;;;;;4.95;100.00;99510.94;5051995;28;20176;-62
2023/01/24 01:11:13;;;;;;;29.52;17.23;;;;;;;4.71;100.00;99457.78;5029841;28;20220;-62
2023/01/24 01:13:38;;;;;;;27.90;15.30;;;;;;;4.71;100.00;99441.56;5029933;28;20186;-62
2023/01/24 01:16:11;;;;;;;27.02;15.15;;;;;;;5.13;100.00;99510.41;5029837;28;20186;-62
2023/01/24 01:18:37;;;;;;;26.50;16.10;;;;;;;5.02;100.00;99473.13;5030094;28;20178;-62
2023/01/24 01:21:04;;;;;;;24.65;14.73;;;;;;;5.22;100.00;99499.88;5029831;28;20190;-62
2023/01/24 01:23:30;;;;;;;30.55;15.30;;;;;;;5.18;100.00;99508.53;5029617;28;20202;-62
2023/01/24 01:26:00;;;;;;;27.13;14.88;;;;;;;5.06;100.00;99496.06;5029694;28;20637;-62
2023/01/24 01:28:25;;;;;;;23.92;13.60;;;;;;;4.86;100.00;99465.06;5030126;28;20659;-62
2023/01/24 01:30:54;;;;;;;28.42;15.35;;;;;;;5.20;100.00;99517.03;5031046;28;20228;-62
2023/01/24 01:33:20;;;;;;;22.80;13.80;;;;;;;4.49;100.00;99413.16;5033887;28;20190;-62
2023/01/24 01:35:47;;;;;;;21.75;12.80;;;;;;;4.78;100.00;99473.84;5033428;28;20578;-61
2023/01/24 01:38:13;;;;;;;24.60;14.45;;;;;;;4.50;100.00;99458.38;5033555;28;20253;-62
2023/01/24 01:40:38;;;;;;;22.63;15.07;;;;;;;4.78;100.00;99494.34;5033711;28;20221;-62
2023/01/24 01:43:16;;;;;;;24.65;13.35;;;;;;;4.47;100.00;99437.97;5052279;28;20641;-62
2023/01/24 01:45:44;;;;;;;30.98;14.27;;;;;;;4.64;100.00;99466.53;5055709;28;20257;-62
2023/01/24 01:48:24;;;;;;;26.55;14.35;;;;;;;4.38;100.00;99412.59;5055008;28;20180;-62
2023/01/24 01:51:05;;;;;;;28.13;15.60;;;;;;;4.94;100.00;99493.88;5055312;28;20588;-62
2023/01/24 01:53:41;;;;;;;30.30;15.77;;;;;;;4.32;100.00;99399.97;5056077;28;20243;-62
2023/01/24 01:56:13;;;;;;;31.80;16.80;;;;;;;4.83;100.00;99485.63;5055204;28;20550;-62
2023/01/24 01:58:41;;;;;;;25.58;14.98;;;;;;;4.67;100.00;99440.81;5055231;28;20201;-62
2023/01/24 02:01:07;;;;;;;25.85;16.10;;;;;;;4.66;100.00;99430.63;5054835;28;20182;-62
2023/01/24 02:03:39;;;;;;;29.20;15.88;;;;;;;4.78;100.00;99466.97;5054998;28;20198;-62
2023/01/24 02:06:21;;;;;;;24.83;15.38;;;;;;;4.49;100.00;99402.91;5055664;28;20172;-62
2023/01/24 02:08:48;;;;;;;27.10;17.60;;;;;;;5.05;100.00;99485.84;5055822;28;20169;-62
2023/01/24 02:16:45;;;;;;;31.08;15.05;;;;;;;5.01;100.00;99508.19;5054931;28;20655;-62
2023/01/24 02:19:20;;;;;;;30.73;14.95;;;;;;;4.70;100.00;99448.44;5055042;28;20174;-61
2023/01/24 02:21:55;;;;;;;26.17;15.13;;;;;;;4.92;100.00;99500.78;5054653;28;20664;-61
2023/01/24 02:24:37;;;;;;;24.92;14.82;;;;;;;4.75;100.00;99492.72;5054720;28;20165;-62
2023/01/24 02:27:03;;;;;;;27.55;14.93;;;;;;;4.78;100.00;99502.88;5054612;28;20612;-61
2023/01/24 02:29:28;;;;;;;26.67;14.27;;;;;;;4.83;100.00;99516.41;5054252;28;20189;-61
2023/01/24 02:32:05;;;;;;;24.60;13.73;;;;;;;4.79;100.00;99503.72;5054572;28;20651;-61
2023/01/24 02:34:30;;;;;;;22.38;12.88;;;;;;;4.70;100.00;99489.44;5055038;28;20166;-61
2023/01/24 02:37:01;;;;;;;23.55;14.63;;;;;;;4.87;100.00;99527.41;5054572;28;20629;-61
2023/01/24 02:39:30;;;;;;;22.15;13.57;;;;;;;4.47;100.00;99476.41;5054616;28;20180;-61
2023/01/24 02:42:10;;;;;;;21.63;13.80;;;;;;;4.69;100.00;99525.38;5053982;28;20288;-61
2023/01/24 02:44:53;;;;;;;26.45;15.30;;;;;;;4.75;100.00;99532.88;5054325;28;20162;-61
2023/01/24 02:47:18;;;;;;;20.30;11.60;;;;;;;4.47;100.00;99483.25;5054249;28;20174;-61
2023/01/24 02:49:43;;;;;;;20.48;13.00;;;;;;;4.52;100.00;99510.44;5054232;28;20230;-61
2023/01/24 02:54:53;;;;;;;23.02;13.93;;;;;;;4.59;100.00;99526.47;5054186;28;20173;-61
2023/01/24 03:00:06;;;;;;;27.70;12.82;;;;;;;4.36;100.00;99486.09;5054309;28;20185;-61
2023/01/24 03:02:32;;;;;;;18.25;11.98;;;;;;;4.72;100.00;99528.69;5054453;28;20243;-61
2023/01/24 03:04:57;;;;;;;20.27;12.02;;;;;;;4.48;100.00;99467.84;5053889;28;20178;-61
2023/01/24 03:07:23;;;;;;;24.35;12.93;;;;;;;4.63;100.00;99505.03;5054141;28;20651;-61
2023/01/24 03:09:48;;;;;;;26.85;12.35;;;;;;;4.64;100.00;99499.88;5054082;28;20178;-61
2023/01/24 03:36:52;;;;;;;20.73;13.05;;;;;;;3.93;100.00;99477.00;5053536;28;20200;-61
2023/01/24 03:42:01;;;;;;;19.00;13.00;;;;;;;3.83;100.00;99432.88;5053220;28;20254;-62
2023/01/24 03:44:28;;;;;;;24.70;12.50;;;;;;;4.08;100.00;99472.34;5053444;28;20173;-61
2023/01/24 03:46:53;;;;;;;19.77;12.25;;;;;;;4.50;100.00;99521.63;5052796;28;20644;-62
2023/01/24 03:49:19;;;;;;;15.68;10.85;;;;;;;4.38;100.00;99521.94;5053230;28;20296;-61
2023/01/24 03:54:28;;;;;;;21.52;10.00;;;;;;;4.55;100.00;99525.72;5052659;28;20205;-62
2023/01/24 03:56:54;;;;;;;17.23;9.65;;;;;;;4.15;100.00;99458.50;5053200;28;20261;-61
2023/01/24 03:59:21;;;;;;;22.10;10.23;;;;;;;4.47;100.00;99522.53;5052861;28;20631;-62
2023/01/24 04:01:47;;;;;;;16.20;10.07;;;;;;;4.25;100.00;99467.63;5052419;28;20559;-61
2023/01/24 04:04:12;;;;;;;18.98;11.68;;;;;;;4.17;100.00;99476.38;5053358;28;20185;-62
2023/01/24 04:06:37;;;;;;;14.25;9.30;;;;;;;4.43;100.00;99520.94;5053256;28;20323;-61
2023/01/24 04:09:03;;;;;;;17.02;11.45;;;;;;;4.51;100.00;99524.16;5052617;28;20178;-61
2023/01/24 04:11:28;;;;;;;18.05;10.45;;;;;;;4.50;100.00;99517.31;5052713;28;20180;-62
2023/01/24 04:13:54;;;;;;;14.45;9.65;;;;;;;4.14;100.00;99467.06;5052916;28;20594;-61
2023/01/24 04:16:19;;;;;;;19.38;11.77;;;;;;;4.02;100.00;99467.38;5053092;28;20174;-62
2023/01/24 04:18:45;;;;;;;13.18;9.55;;;;;;;4.33;100.00;99524.63;5052604;28;20189;-62
2023/01/24 04:21:10;;;;;;;14.93;10.93;;;;;;;4.28;100.00;99517.94;5053033;28;20624;-62
2023/01/24 04:23:38;;;;;;;24.08;10.68;;;;;;;4.28;100.00;99521.34;5052449;28;20266;-62
2023/01/24 04:26:03;;;;;;;23.85;11.95;;;;;;;4.36;100.00;99527.09;5052996;28;20173;-62
2023/01/24 04:28:31;;;;;;;29.30;16.13;;;;;;;4.43;100.00;99527.78;5052343;28;20640;-62
2023/01/24 04:31:00;;;;;;;24.00;10.80;;;;;;;4.19;100.00;99469.53;5052712;28;20224;-62
2023/01/24 04:33:26;;;;;;;20.23;11.02;;;;;;;3.95;100.00;99450.50;5052412;28;20212;-62
2023/01/24 04:35:56;;;;;;;19.25;11.57;;;;;;;4.43;100.00;99514.97;5052185;28;20225;-62
2023/01/24 04:38:22;;;;;;;15.50;10.82;;;;;;;4.30;100.00;99499.09;5052672;28;20178;-62
2023/01/24 04:40:59;;;;;;;16.83;9.25;;;;;;;4.29;100.00;99515.34;5052866;28;20273;-62
2023/01/24 04:43:24;;;;;;;19.73;10.82;;;;;;;4.01;100.00;99458.03;5052250;28;20276;-62
2023/01/24 04:45:50;;;;;;;16.20;9.75;;;;;;;4.04;100.00;99473.31;5052238;28;20264;-62
2023/01/24 04:48:15;;;;;;;16.73;10.15;;;;;;;3.89;100.00;99468.56;5052224;28;20174;-62
2023/01/24 04:50:40;;;;;;;20.77;12.55;;;;;;;3.96;100.00;99474.38;5052179;28;20188;-62
2023/01/24 04:53:06;;;;;;;19.90;10.88;;;;;;;3.92;100.00;99460.81;5052193;28;20177;-62
2023/01/24 04:55:31;;;;;;;18.92;10.27;;;;;;;4.16;100.00;99511.41;5053047;28;20269;-62
2023/01/24 04:57:56;;;;;;;16.90;10.25;;;;;;;4.06;100.00;99496.31;5052449;28;20177;-62
2023/01/24 05:00:22;;;;;;;20.10;11.93;;;;;;;3.83;100.00;99455.94;5052111;28;20284;-62
2023/01/24 05:02:51;;;;;;;15.15;10.02;;;;;;;4.05;100.00;99526.22;5052262;28;20212;-62
2023/01/24 05:05:16;;;;;;;18.98;11.18;;;;;;;3.91;100.00;99478.78;5053955;28;20722;-62
2023/01/24 05:07:41;;;;;;;17.45;10.57;;;;;;;3.86;100.00;99471.19;5056354;28;20185;-62
2023/01/24 05:10:07;;;;;;;17.05;11.07;;;;;;;3.86;100.00;99483.16;5033918;28;20190;-62
2023/01/24 05:12:33;;;;;;;20.23;12.02;;;;;;;3.88;100.00;99468.59;5033958;28;20252;-62
2023/01/24 05:14:58;;;;;;;17.00;11.18;;;;;;;4.14;100.00;99523.41;5033923;28;20190;-62
2023/01/24 05:17:24;;;;;;;22.48;11.10;;;;;;;4.13;100.00;99537.09;5033722;28;20265;-62
2023/01/24 05:19:52;;;;;;;19.33;11.20;;;;;;;4.05;100.00;99533.88;5033698;28;20339;-62
2023/01/24 05:22:17;;;;;;;19.63;10.68;;;;;;;4.01;100.00;99534.84;5033819;28;20202;-62
2023/01/24 05:24:43;;;;;;;18.17;10.68;;;;;;;3.96;100.00;99518.75;5033588;28;20189;-62
2023/01/24 05:27:08;;;;;;;16.20;10.73;;;;;;;4.02;100.00;99541.63;5033483;28;20251;-61
2023/01/24 05:29:33;;;;;;;14.70;9.82;;;;;;;3.64;100.00;99485.41;5033699;28;20575;-61
2023/01/24 05:31:59;;;;;;;16.38;11.27;;;;;;;3.92;100.00;99527.38;5033366;28;20270;-61
2023/01/24 05:34:24;;;;;;;22.00;11.45;;;;;;;3.59;100.00;99487.25;5033376;28;20179;-61
2023/01/24 05:36:50;;;;;;;21.23;12.13;;;;;;;3.65;100.00;99484.53;5033618;28;20199;-61
2023/01/24 05:39:15;;;;;;;23.70;13.63;;;;;;;3.91;100.00;99519.75;5033237;28;20696;-61
2023/01/24 05:41:41;;;;;;;17.50;11.18;;;;;;;3.75;100.00;99490.28;5050213;28;20332;-61
2023/01/24 05:44:06;;;;;;;17.45;11.20;;;;;;;3.64;100.00;99482.00;5055664;28;20205;-61
2023/01/24 05:46:32;;;;;;;17.55;11.52;;;;;;;3.85;100.00;99502.78;5055356;28;20197;-62
2023/01/24 05:48:57;;;;;;;19.50;10.60;;;;;;;4.11;100.00;99549.09;5055077;28;20251;-62
2023/01/24 05:51:22;;;;;;;18.10;11.27;;;;;;;4.23;100.00;99548.78;5055270;28;20557;-62
2023/01/24 05:53:48;;;;;;;15.32;10.85;;;;;;;3.94;100.00;99512.81;5055260;28;20181;-62
2023/01/24 05:56:17;;;;;;;21.08;12.13;;;;;;;3.93;100.00;99505.19;5054840;28;20181;-62
2023/01/24 05:58:44;;;;;;;19.08;11.43;;;;;;;4.29;100.00;99548.66;5055161;28;20177;-61
2023/01/24 06:01:12;;;;;;;19.15;12.05;;;;;;;3.95;100.00;99514.50;5055026;28;20231;-62
2023/01/24 06:03:39;;;;;;;18.48;12.05;;;;;;;4.08;100.00;99554.28;5054896;28;20202;-62
2023/01/24 06:06:04;;;;;;;25.35;14.88;;;;;;;3.95;100.00;99563.16;5055008;28;20269;-62
2023/01/24 06:08:30;;;;;;;21.00;12.77;;;;;;;4.08;100.00;99569.66;5055776;28;20217;-61
2023/01/24 06:11:02;;;;;;;22.98;13.15;;;;;;;3.64;100.00;99500.78;5054968;28;20178;-61
2023/01/24 06:13:29;;;;;;;24.63;13.90;;;;;;;3.97;100.00;99571.63;5055009;28;20596;-62
2023/01/24 06:16:03;;;;;;;20.90;12.60;;;;;;;3.68;100.00;99537.38;5054702;28;20173;-62
2023/01/24 06:18:29;;;;;;;22.02;12.60;;;;;;;4.02;100.00;99567.25;5054632;28;20240;-62
2023/01/24 06:20:55;;;;;;;19.70;12.52;;;;;;;4.02;100.00;99554.44;5055011;28;20180;-62
2023/01/24 06:23:26;;;;;;;24.55;12.77;;;;;;;3.48;100.00;99478.13;5054921;28;20240;-62
2023/01/24 06:25:52;;;;;;;18.50;12.35;;;;;;;3.74;100.00;99511.63;5054689;28;20210;-62
2023/01/24 06:28:18;;;;;;;18.35;12.30;;;;;;;4.01;100.00;99552.75;5054564;28;20656;-61
2023/01/24 06:30:49;;;;;;;20.75;12.77;;;;;;;3.89;100.00;99522.34;5054703;28;20170;-62
2023/01/24 06:33:30;;;;;;;21.45;13.88;;;;;;;3.86;100.00;99516.44;5054807;28;20181;-61
2023/01/24 06:36:04;;;;;;;24.27;15.20;;;;;;;4.21;100.00;99588.13;5054462;28;20197;-61
2023/01/24 06:38:30;;;;;;;23.55;13.20;;;;;;;3.84;100.00;99519.03;5054923;28;20276;-62
2023/01/24 06:40:57;;;;;;;18.50;11.77;;;;;;;4.21;100.00;99591.53;5054712;28;20225;-62
2023/01/24 06:43:23;;;;;;;23.17;12.68;;;;;;;3.87;100.00;99570.19;5054848;28;20232;-62
2023/01/24 06:45:49;;;;;;;21.52;11.70;;;;;;;3.48;100.00;99531.84;5054822;28;20549;-62
2023/01/24 06:48:14;;;;;;;20.70;13.10;;;;;;;3.85;100.00;99600.06;5053972;28;20182;-62
2023/01/24 06:50:40;;;;;;;20.60;11.80;;;;;;;3.69;100.00;99565.50;5054266;28;20174;-62
2023/01/24 06:53:07;;;;;;;19.52;12.32;;;;;;;3.49;100.00;99542.03;5053928;28;20190;-63
2023/01/24 06:55:34;;;;;;;22.25;12.60;;;;;;;3.61;100.00;99587.00;5054081;28;20213;-63
2023/01/24 06:58:01;;;;;;;19.80;12.85;;;;;;;3.38;100.00;99543.19;5054135;28;20181;-61
2023/01/24 07:00:28;;;;;;;22.70;14.75;;;;;;;3.46;100.00;99544.69;5054062;28;20170;-60
2023/01/24 07:03:02;;;;;;;24.90;13.00;;;;;;;3.52;100.00;99552.22;5053938;28;20198;-60
2023/01/24 07:05:28;;;;;;;19.63;12.60;;;;;;;3.90;100.00;99616.19;5053902;28;20636;-60
2023/01/24 07:07:54;;;;;;;20.40;11.57;;;;;;;3.66;100.00;99616.72;5054158;28;20252;-60
2023/01/24 07:10:20;;;;;;;18.70;10.57;;;;;;;3.78;100.00;99631.81;5053817;28;20181;-60
2023/01/24 07:12:46;;;;;;;19.15;11.27;;;;;;;3.55;100.00;99582.84;5054316;28;20554;-60
2023/01/24 07:15:12;;;;;;;18.55;11.35;;;;;;;3.48;100.00;99571.06;5053737;28;20265;-60
2023/01/24 07:17:38;;;;;;;22.20;12.18;;;;;;;3.49;100.00;99584.69;5054213;28;20201;-60
2023/01/24 07:20:04;;;;;;;20.55;12.57;;;;;;;3.51;100.00;99573.53;5054155;28;20174;-61
2023/01/24 07:22:29;;;;;;;20.25;12.27;;;;;;;3.60;100.00;99590.41;5053305;28;20762;-60
2023/01/24 07:24:55;;;;;;;19.73;11.75;;;;;;;3.60;100.00;99575.06;5051636;28;20248;-60
2023/01/24 07:27:21;;;;;;;20.90;12.35;;;;;;;3.42;100.00;99527.72;5053353;28;20180;-60
2023/01/24 07:29:46;;;;;;;19.17;10.88;;;;;;;3.65;100.00;99576.66;5052560;28;20178;-60
2023/01/24 07:32:12;;;;;;;14.05;9.02;;;;;;;4.01;100.00;99623.59;5053635;28;20193;-60
2023/01/24 07:34:38;;;;;;;14.68;10.27;;;;;;;3.66;100.00;99616.72;5053283;28;20180;-61
2023/01/24 07:37:05;;;;;;;17.15;10.50;;;;;;;3.51;100.00;99637.50;5054048;28;20201;-60
2023/01/24 07:39:32;;;;;;;19.70;12.10;;;;;;;3.59;100.00;99630.53;5053474;28;20257;-60
2023/01/24 07:41:59;;;;;;;15.05;10.38;;;;;;;3.14;100.00;99559.00;5053050;28;20224;-61
2023/01/24 07:44:25;;;;;;;17.35;10.20;;;;;;;3.51;100.00;99622.16;5053685;28;20644;-61
2023/01/24 07:46:50;;;;;;;16.67;9.93;;;;;;;3.44;100.00;99620.59;5053143;28;20184;-61
2023/01/24 07:49:16;;;;;;;19.77;12.30;;;;;;;3.50;100.00;99643.50;5053098;28;20170;-61
2023/01/24 07:51:42;;;;;;;20.48;12.77;;;;;;;3.43;100.00;99638.53;5053310;28;20621;-61
2023/01/24 07:54:08;;;;;;;19.40;11.57;;;;;;;3.32;100.00;99597.84;5052955;28;20177;-61
2023/01/24 07:56:33;;;;;;;20.25;11.20;;;;;;;3.66;100.00;99647.44;5053213;28;20201;-61
2023/01/24 07:58:58;;;;;;;17.77;11.18;;;;;;;3.38;100.00;99625.84;5053402;28;20212;-61
2023/01/24 08:01:25;;;;;;;20.95;12.82;;;;;;;3.51;100.00;99634.94;5052726;28;20549;-62
2023/01/24 08:03:54;;;;;;;18.88;12.57;;;;;;;3.18;100.00;99606.66;5052323;28;20209;-61
2023/01/24 08:06:19;;;;;;;21.67;12.90;;;;;;;3.47;100.00;99653.81;5052772;28;20177;-61
2023/01/24 08:08:45;;;;;;;24.02;13.07;;;;;;;3.27;100.00;99616.72;5052716;28;20170;-61
2023/01/24 08:11:13;;;;;;;17.70;11.93;;;;;;;3.57;100.00;99652.72;5052733;28;20180;-61
2023/01/24 08:13:38;;;;;;;19.35;10.85;;;;;;;3.47;100.00;99635.06;5052629;28;20621;-61
2023/01/24 08:16:04;;;;;;;18.20;12.05;;;;;;;3.56;100.00;99648.50;5052614;28;20742;-61
2023/01/24 08:18:30;;;;;;;29.10;15.60;;;;;;;3.63;100.00;99638.97;5053067;28;20173;-61
2023/01/24 08:20:56;;;;;;;27.08;14.82;;;;;;;3.91;100.00;99663.94;5052566;28;20176;-61
2023/01/24 08:23:22;;;;;;;22.00;12.27;;;;;;;3.95;100.00;99663.00;5052460;28;20201;-61
2023/01/24 08:25:47;;;;;;;19.98;11.98;;;;;;;3.68;100.00;99614.97;5052448;28;20227;-61
2023/01/24 08:28:12;;;;;;;21.33;10.48;;;;;;;3.69;100.00;99603.88;5052422;28;20186;-61
2023/01/24 08:30:38;;;;;;;19.48;12.23;;;;;;;3.76;100.00;99664.28;5053210;28;20260;-62
2023/01/24 08:33:05;;;;;;;22.20;12.38;;;;;;;3.77;100.00;99660.84;5052328;28;20186;-62
2023/01/24 08:35:31;;;;;;;17.30;10.95;;;;;;;3.82;100.00;99674.41;5052433;28;20235;-62
2023/01/24 08:37:57;;;;;;;17.08;11.35;;;;;;;3.55;100.00;99625.53;5052665;28;20242;-62
2023/01/24 08:40:23;;;;;;;18.98;11.50;;;;;;;3.47;100.00;99612.88;5052590;28;20178;-62
2023/01/24 08:42:48;;;;;;;19.95;12.52;;;;;;;2.74;100.00;99501.94;5052222;28;20208;-62
2023/01/24 08:45:14;;;;;;;16.15;11.35;;;;;;;3.85;100.00;99679.44;5052306;28;20238;-62
2023/01/24 08:47:39;;;;;;;17.00;11.07;;;;;;;3.54;100.00;99627.22;5052567;28;20180;-62
2023/01/24 08:50:05;;;;;;;20.35;13.05;;;;;;;3.57;100.00;99618.63;5052248;28;20561;-62
2023/01/24 08:52:30;;;;;;;14.10;9.07;;;;;;;3.58;100.00;99626.28;5052184;28;20174;-62
2023/01/24 08:54:56;;;;;;;18.88;10.48;;;;;;;3.50;100.00;99623.03;5052141;28;20549;-62
2023/01/24 08:57:21;;;;;;;16.10;10.32;;;;;;;3.27;100.00;99581.75;5052156;28;20261;-62
2023/01/24 08:59:47;;;;;;;17.67;11.35;;;;;;;3.53;100.00;99625.53;5052178;28;20545;-62
2023/01/24 09:02:14;;;;;;;14.48;10.77;;;;;;;3.54;100.00;99626.38;5052268;28;20204;-62
2023/01/24 09:04:39;;;;;;;15.23;10.32;;;;;;;3.91;100.00;99678.47;5051999;28;20217;-62
2023/01/24 09:07:05;;;;;;;17.80;11.52;;;;;;;3.78;100.00;99659.97;5051837;28;20204;-62
2023/01/24 09:09:30;;;;;;;22.63;11.80;;;;;;;3.77;100.00;99660.84;5052297;28;20646;-62
2023/01/24 09:11:58;;;;;;;18.33;12.27;;;;;;;3.95;100.00;99673.25;5051666;28;20252;-62
2023/01/24 09:14:23;;;;;;;18.23;10.85;;;;;;;3.66;100.00;99614.16;5051962;28;20182;-62
2023/01/24 09:16:48;;;;;;;14.63;10.35;;;;;;;4.05;100.00;99684.13;5052524;28;20284;-62
2023/01/24 09:19:16;;;;;;;17.80;11.70;;;;;;;3.77;100.00;99619.88;5050561;28;20177;-62
2023/01/24 09:21:43;;;;;;;16.10;11.50;;;;;;;3.63;100.00;99624.44;5051735;28;20260;-62
2023/01/24 09:24:09;;;;;;;23.90;15.18;;;;;;;3.53;100.00;99625.53;5051888;28;20170;-62
2023/01/24 09:26:36;;;;;;;19.25;11.88;;;;;;;3.68;100.00;99616.69;5051874;28;20174;-62
2023/01/24 09:29:02;;;;;;;19.65;11.13;;;;;;;3.87;100.00;99667.47;5050954;28;20248;-62
2023/01/24 09:31:27;;;;;;;16.80;9.15;;;;;;;3.65;100.00;99612.47;5051480;28;20648;-62
2023/01/24 09:33:53;;;;;;;14.02;9.32;;;;;;;3.75;100.00;99616.53;5051762;28;20178;-62
2023/01/24 09:36:18;;;;;;;12.57;8.63;;;;;;;3.71;100.00;99614.06;5051821;28;20652;-62
2023/01/24 09:38:43;;;;;;;12.02;7.93;;;;;;;3.82;100.00;99637.69;5051840;28;20185;-62
2023/01/24 09:41:23;;;;;;;15.20;11.30;;;;;;;4.03;100.00;99663.66;5052025;28;20569;-62
2023/01/24 09:43:52;;;;;;;15.18;9.40;;;;;;;3.78;100.00;99642.03;5051956;28;20205;-62
2023/01/24 09:46:26;;;;;;;13.00;8.80;;;;;;;4.05;100.00;99661.94;5051689;28;20248;-62
2023/01/24 09:49:10;;;;;;;12.40;9.00;;;;;;;4.10;100.00;99656.69;5051661;28;20185;-62
2023/01/24 09:51:59;;;;;;;12.68;7.95;;;;;;;3.54;100.00;99568.38;5052333;28;20628;-62
2023/01/24 09:54:36;;;;;;;12.10;7.50;;;;;;;3.53;100.00;99602.53;5055367;28;20200;-62
2023/01/24 09:57:11;;;;;;;14.85;9.07;;;;;;;3.34;100.00;99585.03;5055210;28;20177;-62
2023/01/24 09:59:49;;;;;;;22.48;13.48;;;;;;;3.03;100.00;99526.00;5055501;28;20256;-62
2023/01/24 10:02:19;;;;;;;20.20;13.38;;;;;;;3.76;100.00;99648.94;5055602;28;20197;-62
2023/01/24 10:04:47;;;;;;;26.88;18.00;;;;;;;3.60;100.00;99637.31;5055011;28;20185;-62
2023/01/24 10:07:39;;;;;;;16.98;11.50;;;;;;;3.75;100.00;99642.13;5054710;28;20660;-62
2023/01/24 10:10:32;;;;;;;23.45;14.98;;;;;;;3.73;100.00;99623.38;5055574;28;20273;-62
2023/01/24 10:13:18;;;;;;;10.77;8.40;;;;;;;3.88;100.00;99645.25;5055431;28;20170;-62
2023/01/24 10:15:59;;;;;;;15.15;9.43;;;;;;;3.81;100.00;99644.56;5055667;28;20205;-62
2023/01/24 10:18:47;;;;;;;26.58;17.17;;;;;;;3.45;100.00;99580.53;5054822;28;20182;-62
2023/01/24 10:21:32;;;;;;;21.73;14.30;;;;;;;3.78;100.00;99613.91;5055335;28;20205;-62
2023/01/24 10:24:01;;;;;;;13.82;8.85;;;;;;;3.88;100.00;99617.94;5054977;28;20251;-62
2023/01/24 10:26:38;;;;;;;15.07;9.68;;;;;;;3.89;100.00;99609.38;5054669;28;20709;-62
2023/01/24 10:29:20;;;;;;;18.90;12.30;;;;;;;3.79;100.00;99572.06;5054626;28;20632;-62
2023/01/24 10:31:59;;;;;;;18.02;11.35;;;;;;;3.76;100.00;99573.84;5054556;28;20181;-62
2023/01/24 10:34:39;;;;;;;13.07;9.20;;;;;;;3.74;100.00;99589.22;5054605;28;20170;-62
2023/01/24 10:37:17;;;;;;;13.38;7.65;;;;;;;3.65;100.00;99557.88;5055051;28;20537;-62
2023/01/24 10:39:43;;;;;;;10.00;7.55;;;;;;;4.03;100.00;99597.09;5054445;28;20532;-62
2023/01/24 10:42:20;;;;;;;19.75;13.20;;;;;;;3.34;100.00;99501.44;5054061;28;20213;-62
2023/01/24 10:44:47;;;;;;;17.83;12.68;;;;;;;3.96;100.00;99587.03;5054035;28;20177;-62
2023/01/24 10:47:21;;;;;;;16.00;11.70;;;;;;;3.81;100.00;99605.31;5054303;28;20216;-63
2023/01/24 10:50:11;;;;;;;14.23;9.25;;;;;;;3.42;100.00;99540.50;5054226;28;20243;-62
2023/01/24 10:52:36;;;;;;;20.95;12.57;;;;;;;3.84;100.00;99605.25;5054817;28;20178;-62
2023/01/24 10:55:21;;;;;;;13.35;9.85;;;;;;;3.74;100.00;99544.91;5054127;28;20554;-62
2023/01/24 10:57:52;;;;;;;13.40;9.55;;;;;;;3.97;100.00;99548.56;5053025;28;20251;-62
2023/01/24 11:00:29;;;;;;;20.95;11.80;;;;;;;4.07;100.00;99551.75;5054287;28;20625;-62
2023/01/24 11:03:05;;;;;;;30.85;19.08;;;;;;;4.12;100.00;99550.78;5053757;28;20208;-62
2023/01/24 11:05:52;;;;;;;27.25;16.55;;;;;;;4.15;100.00;99542.19;5054821;28;20165;-62
2023/01/24 11:08:23;;;;;;;19.70;12.00;;;;;;;4.27;100.00;99586.25;5053942;28;20170;-62
2023/01/24 11:10:59;;;;;;;13.57;8.77;;;;;;;4.14;100.00;99546.44;5053882;28;20217;-62
2023/01/24 11:13:40;;;;;;;13.07;7.65;;;;;;;4.34;100.00;99576.69;5053833;28;20166;-62
2023/01/24 11:16:17;;;;;;;18.80;11.50;;;;;;;4.08;100.00;99536.34;5053746;28;20181;-62
2023/01/24 11:18:51;;;;;;;44.60;20.73;;;;;;;4.05;100.00;99536.44;5054046;28;20175;-62
2023/01/24 11:21:19;;;;;;;18.42;9.90;;;;;;;3.98;100.00;99523.81;5054035;28;20173;-62
2023/01/24 11:23:45;;;;;;;15.23;9.55;;;;;;;4.17;100.00;99548.09;5053527;28;20208;-62
2023/01/24 11:26:31;;;;;;;10.85;7.70;;;;;;;4.18;100.00;99529.28;5053551;28;20177;-62
2023/01/24 11:28:56;;;;;;;25.27;13.70;;;;;;;4.41;100.00;99579.06;5054034;28;20178;-62
2023/01/24 11:31:37;;;;;;;179.18;63.45;;;;;;;3.97;100.00;99514.47;5053781;28;20178;-62
2023/01/24 11:34:40;;;;;;;45.90;21.60;;;;;;;4.28;100.00;99576.84;5053398;28;20167;-62
2023/01/24 11:37:24;;;;;;;31.10;16.77;;;;;;;4.35;100.00;99574.09;5053531;28;20193;-62
2023/01/24 11:40:17;;;;;;;109.07;43.60;;;;;;;4.26;100.00;99571.75;5053276;28;20212;-62
2023/01/24 11:42:56;;;;;;;53.65;21.08;;;;;;;4.14;100.00;99554.13;5053803;28;20201;-62
2023/01/24 11:45:24;;;;;;;56.55;23.17;;;;;;;4.33;100.00;99562.22;5053786;28;20174;-62
2023/01/24 11:48:14;;;;;;;68.32;26.95;;;;;;;4.17;100.00;99553.22;5053114;28;20194;-62
2023/01/24 11:51:15;;;;;;;24.33;12.18;;;;;;;4.36;100.00;99573.22;5053720;28;20162;-62
2023/01/24 11:54:05;;;;;;;136.95;53.13;;;;;;;4.52;100.00;99566.81;5050573;28;20190;-62
2023/01/24 11:56:44;;;;;;;179.80;77.28;;;;;;;4.58;100.00;99566.66;5050884;28;20186;-62
2023/01/24 11:59:34;;;;;;;505.10;262.50;;;;;;;4.38;100.00;99563.75;5051209;28;20174;-62
2023/01/24 12:02:23;;;;;;;85.03;41.50;;;;;;;3.94;100.00;99505.16;5051136;28;20185;-62
2023/01/24 12:05:06;;;;;;;61.45;35.70;;;;;;;4.48;100.00;99565.22;5050565;28;20209;-62
2023/01/24 12:07:57;;;;;;;39.58;25.33;;;;;;;4.47;100.00;99555.00;5050718;28;20684;-62